sensor_id;sensor_type;location;lat;lon;timestamp;pressure;altitude;pressure_sealevel;temperature;humidity
7168;BME280;3625;51.762;14.320;2022-11-15T00:02:42;100721.78;;;4.91;100.00
7168;BME280;3625;51.762;14.320;2022-11-15T00:05:29;100718.28;;;4.89;100.00
7168;BME280;3625;51.762;14.320;2022-11-15T00:08:16;100715.66;;;4.89;100.00
7168;BME280;3625;51.762;14.320;2022-11-15T00:11:04;100724.38;;;4.88;100.00
7168;BME280;3625;51.762;14.320;2022-11-15T00:13:55;100713.91;;;4.88;100.00
7168;BME280;3625;51.762;14.320;2022-11-15T00:16:42;100714.78;;;4.88;100.00
7168;BME280;3625;51.762;14.320;2022-11-15T00:19:29;100702.59;;;4.92;100.00
7168;BME280;3625;51.762;14.320;2022-11-15T00:22:17;100713.06;;;4.90;100.00
7168;BME280;3625;51.762;14.320;2022-11-15T00:25:04;100705.16;;;4.81;100.00
7168;BME280;3625;51.762;14.320;2022-11-15T00:27:55;100703.38;;;4.74;100.00
7168;BME280;3625;51.762;14.320;2022-11-15T00:30:44;100691.94;;;4.68;100.00
7168;BME280;3625;51.762;14.320;2022-11-15T00:33:32;100693.69;;;4.69;100.00
7168;BME280;3625;51.762;14.320;2022-11-15T00:36:19;100698.03;;;4.61;100.00
7168;BME280;3625;51.762;14.320;2022-11-15T00:39:06;100698.00;;;4.59;100.00
7168;BME280;3625;51.762;14.320;2022-11-15T00:41:54;100693.75;;;4.73;100.00
7168;BME280;3625;51.762;14.320;2022-11-15T00:44:41;100695.50;;;4.79;100.00
7168;BME280;3625;51.762;14.320;2022-11-15T00:47:30;100692.84;;;4.71;100.00
7168;BME280;3625;51.762;14.320;2022-11-15T00:50:18;100686.72;;;4.69;100.00
7168;BME280;3625;51.762;14.320;2022-11-15T00:53:05;100684.13;;;4.71;100.00
7168;BME280;3625;51.762;14.320;2022-11-15T00:55:53;100681.50;;;4.77;100.00
7168;BME280;3625;51.762;14.320;2022-11-15T00:58:40;100682.41;;;4.85;100.00
7168;BME280;3625;51.762;14.320;2022-11-15T01:01:27;100681.59;;;4.89;100.00
7168;BME280;3625;51.762;14.320;2022-11-15T01:04:15;100678.09;;;4.93;100.00
7168;BME280;3625;51.762;14.320;2022-11-15T01:07:03;100671.16;;;5.01;100.00
7168;BME280;3625;51.762;14.320;2022-11-15T01:09:50;100681.66;;;5.07;100.00
7168;BME280;3625;51.762;14.320;2022-11-15T01:12:37;100677.28;;;5.06;100.00
7168;BME280;3625;51.762;14.320;2022-11-15T01:15:24;100669.44;;;5.12;100.00
7168;BME280;3625;51.762;14.320;2022-11-15T01:18:11;100669.47;;;5.18;100.00
7168;BME280;3625;51.762;14.320;2022-11-15T01:21:03;100678.19;;;5.14;100.00
7168;BME280;3625;51.762;14.320;2022-11-15T01:23:53;100679.03;;;5.12;100.00
7168;BME280;3625;51.762;14.320;2022-11-15T01:26:41;100662.44;;;5.11;100.00
7168;BME280;3625;51.762;14.320;2022-11-15T01:29:28;100662.44;;;5.13;100.00
7168;BME280;3625;51.762;14.320;2022-11-15T01:32:15;100660.69;;;5.12;100.00
7168;BME280;3625;51.762;14.320;2022-11-15T01:35:02;100665.94;;;5.13;100.00
7168;BME280;3625;51.762;14.320;2022-11-15T01:37:51;100654.59;;;5.14;100.00
7168;BME280;3625;51.762;14.320;2022-11-15T01:40:38;100651.09;;;5.21;100.00
7168;BME280;3625;51.762;14.320;2022-11-15T01:43:28;100656.34;;;5.23;100.00
7168;BME280;3625;51.762;14.320;2022-11-15T01:46:24;100639.75;;;5.30;100.00
7168;BME280;3625;51.762;14.320;2022-11-15T01:49:15;100631.03;;;5.32;100.00
7168;BME280;3625;51.762;14.320;2022-11-15T01:52:06;100626.66;;;5.35;100.00
7168;BME280;3625;51.762;14.320;2022-11-15T01:55:02;100629.31;;;5.44;100.00
7168;BME280;3625;51.762;14.320;2022-11-15T01:57:54;100625.78;;;5.42;100.00
7168;BME280;3625;51.762;14.320;2022-11-15T02:00:43;100626.66;;;5.38;100.00
7168;BME280;3625;51.762;14.320;2022-11-15T02:03:36;100628.41;;;5.36;100.00
7168;BME280;3625;51.762;14.320;2022-11-15T02:06:25;100625.78;;;5.34;100.00
7168;BME280;3625;51.762;14.320;2022-11-15T02:09:12;100621.41;;;5.39;100.00
7168;BME280;3625;51.762;14.320;2022-11-15T02:12:01;100616.19;;;5.42;100.00
7168;BME280;3625;51.762;14.320;2022-11-15T02:14:50;100611.81;;;5.43;100.00
7168;BME280;3625;51.762;14.320;2022-11-15T02:18:02;100554.03;;;5.03;100.00
7168;BME280;3625;51.762;14.320;2022-11-15T02:21:06;100605.69;;;5.41;100.00
7168;BME280;3625;51.762;14.320;2022-11-15T02:27:51;100608.28;;;5.38;100.00
7168;BME280;3625;51.762;14.320;2022-11-15T02:30:45;100610.06;;;5.42;100.00
7168;BME280;3625;51.762;14.320;2022-11-15T02:33:41;100607.44;;;5.42;100.00
7168;BME280;3625;51.762;14.320;2022-11-15T02:36:38;100601.31;;;5.49;100.00
7168;BME280;3625;51.762;14.320;2022-11-15T02:39:32;100602.19;;;5.51;100.00
7168;BME280;3625;51.762;14.320;2022-11-15T02:42:26;100590.81;;;5.49;100.00
7168;BME280;3625;51.762;14.320;2022-11-15T02:45:35;100596.06;;;5.49;100.00
7168;BME280;3625;51.762;14.320;2022-11-15T02:48:26;100590.84;;;5.53;100.00
7168;BME280;3625;51.762;14.320;2022-11-15T02:51:14;100561.09;;;5.42;100.00
7168;BME280;3625;51.762;14.320;2022-11-15T02:54:02;100592.56;;;5.59;100.00
7168;BME280;3625;51.762;14.320;2022-11-15T02:56:50;100589.06;;;5.54;100.00
7168;BME280;3625;51.762;14.320;2022-11-15T03:03:12;100520.84;;;5.17;100.00
7168;BME280;3625;51.762;14.320;2022-11-15T03:06:09;100584.69;;;5.56;100.00
7168;BME280;3625;51.762;14.320;2022-11-15T03:09:04;100583.81;;;5.55;100.00
7168;BME280;3625;51.762;14.320;2022-11-15T03:11:59;100574.22;;;5.53;100.00
7168;BME280;3625;51.762;14.320;2022-11-15T03:14:53;100569.81;;;5.58;100.00
7168;BME280;3625;51.762;14.320;2022-11-15T03:17:46;100574.19;;;5.54;100.00
7168;BME280;3625;51.762;14.320;2022-11-15T03:20:36;100561.09;;;5.53;100.00
7168;BME280;3625;51.762;14.320;2022-11-15T03:23:26;100566.34;;;5.53;100.00
7168;BME280;3625;51.762;14.320;2022-11-15T03:26:17;100566.34;;;5.51;100.00
7168;BME280;3625;51.762;14.320;2022-11-15T03:29:09;100562.84;;;5.51;100.00
7168;BME280;3625;51.762;14.320;2022-11-15T03:32:02;100563.72;;;5.51;100.00
7168;BME280;3625;51.762;14.320;2022-11-15T03:34:53;100566.31;;;5.50;100.00
7168;BME280;3625;51.762;14.320;2022-11-15T03:37:45;100561.09;;;5.50;100.00
7168;BME280;3625;51.762;14.320;2022-11-15T03:40:40;100559.34;;;5.53;100.00
7168;BME280;3625;51.762;14.320;2022-11-15T03:43:33;100564.56;;;5.56;100.00
7168;BME280;3625;51.762;14.320;2022-11-15T03:46:26;100555.84;;;5.53;100.00
7168;BME280;3625;51.762;14.320;2022-11-15T03:49:20;100556.72;;;5.50;100.00
7168;BME280;3625;51.762;14.320;2022-11-15T03:52:10;100547.97;;;5.48;100.00
7168;BME280;3625;51.762;14.320;2022-11-15T03:55:01;100549.72;;;5.51;100.00
7168;BME280;3625;51.762;14.320;2022-11-15T03:57:54;100538.34;;;5.47;100.00
7168;BME280;3625;51.762;14.320;2022-11-15T04:00:43;100545.34;;;5.44;100.00
7168;BME280;3625;51.762;14.320;2022-11-15T04:03:30;100544.44;;;5.46;100.00
7168;BME280;3625;51.762;14.320;2022-11-15T04:06:18;100545.31;;;5.47;100.00
7168;BME280;3625;51.762;14.320;2022-11-15T04:09:05;100547.94;;;5.45;100.00
7168;BME280;3625;51.762;14.320;2022-11-15T04:11:53;100544.44;;;5.46;100.00
7168;BME280;3625;51.762;14.320;2022-11-15T04:14:41;100552.34;;;5.45;100.00
7168;BME280;3625;51.762;14.320;2022-11-15T04:17:50;100554.06;;;5.46;100.00
7168;BME280;3625;51.762;14.320;2022-11-15T04:20:38;100552.31;;;5.48;100.00
7168;BME280;3625;51.762;14.320;2022-11-15T04:23:43;100552.31;;;5.48;100.00
7168;BME280;3625;51.762;14.320;2022-11-15T04:26:46;100556.72;;;5.50;100.00
7168;BME280;3625;51.762;14.320;2022-11-15T04:29:34;100555.81;;;5.48;100.00
7168;BME280;3625;51.762;14.320;2022-11-15T04:32:22;100553.22;;;5.44;100.00
7168;BME280;3625;51.762;14.320;2022-11-15T04:35:10;100543.59;;;5.40;100.00
7168;BME280;3625;51.762;14.320;2022-11-15T04:37:58;100548.84;;;5.40;100.00
7168;BME280;3625;51.762;14.320;2022-11-15T04:40:45;100550.59;;;5.35;100.00
7168;BME280;3625;51.762;14.320;2022-11-15T04:43:33;100549.72;;;5.36;100.00
7168;BME280;3625;51.762;14.320;2022-11-15T04:46:20;100553.22;;;5.36;100.00
7168;BME280;3625;51.762;14.320;2022-11-15T04:49:09;100560.19;;;5.32;100.00
7168;BME280;3625;51.762;14.320;2022-11-15T04:51:56;100556.72;;;5.34;100.00
7168;BME280;3625;51.762;14.320;2022-11-15T04:54:43;100551.47;;;5.34;100.00
7168;BME280;3625;51.762;14.320;2022-11-15T04:57:32;100555.84;;;5.35;100.00
7168;BME280;3625;51.762;14.320;2022-11-15T05:00:19;100548.84;;;5.35;100.00
7168;BME280;3625;51.762;14.320;2022-11-15T05:03:08;100552.34;;;5.36;100.00
7168;BME280;3625;51.762;14.320;2022-11-15T05:06:14;100548.84;;;5.27;100.00
7168;BME280;3625;51.762;14.320;2022-11-15T05:09:01;100547.06;;;5.20;100.00
7168;BME280;3625;51.762;14.320;2022-11-15T05:11:48;100545.34;;;5.16;100.00
7168;BME280;3625;51.762;14.320;2022-11-15T05:14:35;100547.09;;;5.17;100.00
7168;BME280;3625;51.762;14.320;2022-11-15T05:17:23;100541.84;;;5.16;100.00
7168;BME280;3625;51.762;14.320;2022-11-15T05:20:11;100542.69;;;5.15;100.00
7168;BME280;3625;51.762;14.320;2022-11-15T05:22:59;100532.19;;;5.13;100.00
7168;BME280;3625;51.762;14.320;2022-11-15T05:25:47;100544.44;;;5.13;100.00
7168;BME280;3625;51.762;14.320;2022-11-15T05:28:35;100544.44;;;5.16;100.00
7168;BME280;3625;51.762;14.320;2022-11-15T05:31:22;100540.06;;;5.15;100.00
7168;BME280;3625;51.762;14.320;2022-11-15T05:34:10;100540.06;;;5.13;100.00
7168;BME280;3625;51.762;14.320;2022-11-15T05:36:58;100545.31;;;5.13;100.00
7168;BME280;3625;51.762;14.320;2022-11-15T05:39:47;100540.94;;;5.12;100.00
7168;BME280;3625;51.762;14.320;2022-11-15T05:42:34;100547.91;;;5.10;100.00
7168;BME280;3625;51.762;14.320;2022-11-15T05:45:22;100538.34;;;5.09;100.00
7168;BME280;3625;51.762;14.320;2022-11-15T05:48:12;100533.97;;;5.10;100.00
7168;BME280;3625;51.762;14.320;2022-11-15T05:51:01;100526.06;;;5.11;100.00
7168;BME280;3625;51.762;14.320;2022-11-15T05:53:52;100526.09;;;5.08;100.00
7168;BME280;3625;51.762;14.320;2022-11-15T05:56:41;100528.72;;;5.07;100.00
7168;BME280;3625;51.762;14.320;2022-11-15T05:59:30;100526.97;;;5.07;100.00
7168;BME280;3625;51.762;14.320;2022-11-15T06:02:18;100542.69;;;5.06;100.00
7168;BME280;3625;51.762;14.320;2022-11-15T06:05:05;100525.22;;;5.06;100.00
7168;BME280;3625;51.762;14.320;2022-11-15T06:07:56;100529.56;;;5.04;100.00
7168;BME280;3625;51.762;14.320;2022-11-15T06:10:43;100530.44;;;5.03;100.00
7168;BME280;3625;51.762;14.320;2022-11-15T06:13:32;100534.81;;;5.06;100.00
7168;BME280;3625;51.762;14.320;2022-11-15T06:16:20;100535.69;;;5.05;100.00
7168;BME280;3625;51.762;14.320;2022-11-15T06:19:07;100533.09;;;5.08;100.00
7168;BME280;3625;51.762;14.320;2022-11-15T06:21:54;100537.44;;;5.10;100.00
7168;BME280;3625;51.762;14.320;2022-11-15T06:24:41;100540.94;;;5.11;100.00
7168;BME280;3625;51.762;14.320;2022-11-15T06:27:30;100545.31;;;5.13;100.00
7168;BME280;3625;51.762;14.320;2022-11-15T06:30:18;100546.22;;;5.17;100.00
7168;BME280;3625;51.762;14.320;2022-11-15T06:33:06;100547.06;;;5.20;100.00
7168;BME280;3625;51.762;14.320;2022-11-15T06:35:54;100554.06;;;5.24;100.00
7168;BME280;3625;51.762;14.320;2022-11-15T06:38:41;100554.09;;;5.27;100.00
7168;BME280;3625;51.762;14.320;2022-11-15T06:41:28;100559.31;;;5.30;100.00
7168;BME280;3625;51.762;14.320;2022-11-15T06:44:17;100558.44;;;5.33;100.00
7168;BME280;3625;51.762;14.320;2022-11-15T06:47:05;100561.06;;;5.38;100.00
7168;BME280;3625;51.762;14.320;2022-11-15T06:49:53;100561.94;;;5.41;100.00
7168;BME280;3625;51.762;14.320;2022-11-15T06:52:40;100567.19;;;5.46;100.00
7168;BME280;3625;51.762;14.320;2022-11-15T06:55:27;100573.31;;;5.51;100.00
7168;BME280;3625;51.762;14.320;2022-11-15T06:58:14;100568.94;;;5.56;100.00
7168;BME280;3625;51.762;14.320;2022-11-15T07:01:03;100571.56;;;5.59;100.00
7168;BME280;3625;51.762;14.320;2022-11-15T07:03:53;100576.84;;;5.62;100.00
7168;BME280;3625;51.762;14.320;2022-11-15T07:06:40;100578.56;;;5.69;100.00
7168;BME280;3625;51.762;14.320;2022-11-15T07:09:28;100581.19;;;5.74;100.00
7168;BME280;3625;51.762;14.320;2022-11-15T07:12:15;100583.78;;;5.80;100.00
7168;BME280;3625;51.762;14.320;2022-11-15T07:15:02;100579.44;;;5.82;100.00
7168;BME280;3625;51.762;14.320;2022-11-15T07:17:49;100575.09;;;5.96;100.00
7168;BME280;3625;51.762;14.320;2022-11-15T07:20:38;100575.06;;;6.00;100.00
7168;BME280;3625;51.762;14.320;2022-11-15T07:23:26;100575.03;;;6.06;100.00
7168;BME280;3625;51.762;14.320;2022-11-15T07:26:13;100567.13;;;6.14;100.00
7168;BME280;3625;51.762;14.320;2022-11-15T07:29:01;100564.50;;;6.19;100.00
7168;BME280;3625;51.762;14.320;2022-11-15T07:31:49;100560.97;;;6.23;100.00
7168;BME280;3625;51.762;14.320;2022-11-15T07:34:37;100570.63;;;6.30;100.00
7168;BME280;3625;51.762;14.320;2022-11-15T07:37:26;100565.34;;;6.37;100.00
7168;BME280;3625;51.762;14.320;2022-11-15T07:40:13;100559.19;;;6.44;100.00
7168;BME280;3625;51.762;14.320;2022-11-15T07:43:04;100558.25;;;6.53;100.00
7168;BME280;3625;51.762;14.320;2022-11-15T07:45:53;100560.84;;;6.61;100.00
7168;BME280;3625;51.762;14.320;2022-11-15T07:48:44;100552.06;;;6.68;100.00
7168;BME280;3625;51.762;14.320;2022-11-15T07:51:31;100553.75;;;6.78;100.00
7168;BME280;3625;51.762;14.320;2022-11-15T07:54:20;100552.84;;;6.83;100.00
7168;BME280;3625;51.762;14.320;2022-11-15T07:57:07;100544.94;;;6.90;100.00
7168;BME280;3625;51.762;14.320;2022-11-15T07:59:55;100547.50;;;7.00;100.00
7168;BME280;3625;51.762;14.320;2022-11-15T08:02:43;100543.06;;;7.07;100.00
7168;BME280;3625;51.762;14.320;2022-11-15T08:05:30;100533.38;;;7.13;100.00
7168;BME280;3625;51.762;14.320;2022-11-15T08:08:17;100535.06;;;7.25;100.00
7168;BME280;3625;51.762;14.320;2022-11-15T08:11:06;100530.56;;;7.38;100.00
7168;BME280;3625;51.762;14.320;2022-11-15T08:13:53;100534.91;;;7.42;100.00
7168;BME280;3625;51.762;14.320;2022-11-15T08:16:40;100541.00;;;7.45;100.00
7168;BME280;3625;51.762;14.320;2022-11-15T08:19:27;100535.69;;;7.54;100.00
7168;BME280;3625;51.762;14.320;2022-11-15T08:22:14;100532.06;;;7.68;100.00
7168;BME280;3625;51.762;14.320;2022-11-15T08:25:01;100525.88;;;7.72;100.00
7168;BME280;3625;51.762;14.320;2022-11-15T08:27:52;100530.16;;;7.82;100.00
7168;BME280;3625;51.762;14.320;2022-11-15T08:30:41;100518.69;;;7.87;100.00
7168;BME280;3625;51.762;14.320;2022-11-15T08:33:31;100519.50;;;7.94;100.00
7168;BME280;3625;51.762;14.320;2022-11-15T08:36:20;100519.44;;;8.00;100.00
7168;BME280;3625;51.762;14.320;2022-11-15T08:39:10;100520.28;;;8.04;100.00
7168;BME280;3625;51.762;14.320;2022-11-15T08:41:58;100520.19;;;8.13;100.00
7168;BME280;3625;51.762;14.320;2022-11-15T08:44:47;100524.47;;;8.21;100.00
7168;BME280;3625;51.762;14.320;2022-11-15T08:47:34;100523.50;;;8.31;100.00
7168;BME280;3625;51.762;14.320;2022-11-15T08:50:22;100509.31;;;8.40;100.00
7168;BME280;3625;51.762;14.320;2022-11-15T08:53:12;100509.28;;;8.46;100.00
7168;BME280;3625;51.762;14.320;2022-11-15T08:55:59;100514.44;;;8.55;100.00
7168;BME280;3625;51.762;14.320;2022-11-15T08:58:46;100505.47;;;8.65;100.00
7168;BME280;3625;51.762;14.320;2022-11-15T09:01:35;100507.94;;;8.78;100.00
7168;BME280;3625;51.762;14.320;2022-11-15T09:04:22;100509.59;;;8.86;100.00
7168;BME280;3625;51.762;14.320;2022-11-15T09:07:10;100510.31;;;8.96;100.00
7168;BME280;3625;51.762;14.320;2022-11-15T09:09:58;100506.69;;;9.03;100.00
7168;BME280;3625;51.762;14.320;2022-11-15T09:12:45;100503.94;;;9.11;100.00
7168;BME280;3625;51.762;14.320;2022-11-15T09:15:34;100495.91;;;9.18;100.00
7168;BME280;3625;51.762;14.320;2022-11-15T09:18:22;100498.41;;;9.26;100.00
7168;BME280;3625;51.762;14.320;2022-11-15T09:21:10;100498.25;;;9.35;100.00
7168;BME280;3625;51.762;14.320;2022-11-15T09:23:58;100500.81;;;9.41;100.00
7168;BME280;3625;51.762;14.320;2022-11-15T09:26:45;100500.69;;;9.49;100.00
7168;BME280;3625;51.762;14.320;2022-11-15T09:29:32;100490.75;;;9.63;100.00
7168;BME280;3625;51.762;14.320;2022-11-15T09:32:19;100494.97;;;9.73;100.00
7168;BME280;3625;51.762;14.320;2022-11-15T09:35:10;100493.88;;;9.84;100.00
7168;BME280;3625;51.762;14.320;2022-11-15T09:37:58;100490.97;;;9.98;100.00
7168;BME280;3625;51.762;14.320;2022-11-15T09:40:48;100495.13;;;10.11;100.00
7168;BME280;3625;51.762;14.320;2022-11-15T09:43:47;100487.09;;;10.17;100.00
7168;BME280;3625;51.762;14.320;2022-11-15T09:46:42;100489.53;;;10.28;100.00
7168;BME280;3625;51.762;14.320;2022-11-15T09:49:42;100492.00;;;10.36;100.00
7168;BME280;3625;51.762;14.320;2022-11-15T09:52:21;100494.53;;;10.42;100.00
7168;BME280;3625;51.762;14.320;2022-11-15T09:54:52;100492.69;;;10.45;100.00
7168;BME280;3625;51.762;14.320;2022-11-15T09:57:30;100502.25;;;10.51;100.00
7168;BME280;3625;51.762;14.320;2022-11-15T10:00:06;100499.56;;;10.54;100.00
7168;BME280;3625;51.762;14.320;2022-11-15T10:03:09;100502.09;;;10.58;100.00
7168;BME280;3625;51.762;14.320;2022-11-15T10:05:40;100495.78;;;10.64;100.00
7168;BME280;3625;51.762;14.320;2022-11-15T10:08:46;100493.94;;;10.69;100.00
7168;BME280;3625;51.762;14.320;2022-11-15T10:11:20;100490.25;;;10.76;100.00
7168;BME280;3625;51.762;14.320;2022-11-15T10:14:11;100488.31;;;10.83;100.00
7168;BME280;3625;51.762;14.320;2022-11-15T10:17:06;100435.88;;;10.63;100.00
7168;BME280;3625;51.762;14.320;2022-11-15T10:19:53;100481.72;;;11.01;100.00
7168;BME280;3625;51.762;14.320;2022-11-15T10:22:38;100469.28;;;11.04;100.00
7168;BME280;3625;51.762;14.320;2022-11-15T10:25:24;100477.09;;;11.10;100.00
7168;BME280;3625;51.762;14.320;2022-11-15T10:27:55;100472.63;;;11.12;100.00
7168;BME280;3625;51.762;14.320;2022-11-15T10:30:32;100471.59;;;11.18;100.00
7168;BME280;3625;51.762;14.320;2022-11-15T10:33:17;100464.47;;;11.21;100.00
7168;BME280;3625;51.762;14.320;2022-11-15T10:35:49;100467.81;;;11.28;100.00
7168;BME280;3625;51.762;14.320;2022-11-15T10:38:52;100463.34;;;11.31;100.00
7168;BME280;3625;51.762;14.320;2022-11-15T10:41:30;100461.34;;;11.40;100.00
7168;BME280;3625;51.762;14.320;2022-11-15T10:44:24;100454.91;;;11.50;100.00
7168;BME280;3625;51.762;14.320;2022-11-15T10:47:27;100442.41;;;11.55;100.00
7168;BME280;3625;51.762;14.320;2022-11-15T10:50:24;100446.69;;;11.59;100.00
7168;BME280;3625;51.762;14.320;2022-11-15T10:52:54;100440.34;;;11.66;100.00
7168;BME280;3625;51.762;14.320;2022-11-15T10:55:26;100434.03;;;11.70;100.00
7168;BME280;3625;51.762;14.320;2022-11-15T10:58:02;100436.63;;;11.73;100.00
7168;BME280;3625;51.762;14.320;2022-11-15T11:00:34;100424.28;;;11.72;100.00
7168;BME280;3625;51.762;14.320;2022-11-15T11:03:05;100435.56;;;11.80;100.00
7168;BME280;3625;51.762;14.320;2022-11-15T11:05:36;100423.03;;;11.85;100.00
7168;BME280;3625;51.762;14.320;2022-11-15T11:08:24;100422.06;;;11.89;100.00
7168;BME280;3625;51.762;14.320;2022-11-15T11:10:53;100420.25;;;11.91;100.00
7168;BME280;3625;51.762;14.320;2022-11-15T11:13:32;100417.59;;;11.91;100.00
7168;BME280;3625;51.762;14.320;2022-11-15T11:16:21;100419.25;;;11.94;100.00
7168;BME280;3625;51.762;14.320;2022-11-15T11:19:02;100416.56;;;11.95;100.00
7168;BME280;3625;51.762;14.320;2022-11-15T11:21:41;100398.78;;;12.00;100.00
7168;BME280;3625;51.762;14.320;2022-11-15T11:24:21;100403.00;;;12.06;100.00
7168;BME280;3625;51.762;14.320;2022-11-15T11:27:12;100375.94;;;11.95;100.00
7168;BME280;3625;51.762;14.320;2022-11-15T11:29:58;100391.34;;;12.12;100.00
7168;BME280;3625;51.762;14.320;2022-11-15T11:32:40;100391.31;;;12.13;100.00
7168;BME280;3625;51.762;14.320;2022-11-15T11:35:23;100385.88;;;12.18;100.00
7168;BME280;3625;51.762;14.320;2022-11-15T11:37:55;100387.44;;;12.25;100.00
7168;BME280;3625;51.762;14.320;2022-11-15T11:40:30;100375.75;;;12.30;100.00
7168;BME280;3625;51.762;14.320;2022-11-15T11:43:06;100370.38;;;12.33;100.00
7168;BME280;3625;51.762;14.320;2022-11-15T11:45:55;100374.75;;;12.34;100.00
7168;BME280;3625;51.762;14.320;2022-11-15T11:48:40;100370.22;;;12.38;100.00
7168;BME280;3625;51.762;14.320;2022-11-15T11:51:15;100375.47;;;12.39;100.00
7168;BME280;3625;51.762;14.320;2022-11-15T11:53:50;100369.28;;;12.39;100.00
7168;BME280;3625;51.762;14.320;2022-11-15T11:56:26;100370.16;;;12.39;100.00
7168;BME280;3625;51.762;14.320;2022-11-15T11:59:00;100360.38;;;12.41;100.00
7168;BME280;3625;51.762;14.320;2022-11-15T12:01:35;100363.69;;;12.48;100.00
7168;BME280;3625;51.762;14.320;2022-11-15T12:04:14;100356.47;;;12.53;100.00
7168;BME280;3625;51.762;14.320;2022-11-15T12:06:49;100354.78;;;12.51;100.00
7168;BME280;3625;51.762;14.320;2022-11-15T12:09:23;100355.63;;;12.53;100.00
7168;BME280;3625;51.762;14.320;2022-11-15T12:11:59;100347.69;;;12.51;100.00
7168;BME280;3625;51.762;14.320;2022-11-15T12:14:35;100343.22;;;12.53;100.00
7168;BME280;3625;51.762;14.320;2022-11-15T12:17:11;100349.41;;;12.54;100.00
7168;BME280;3625;51.762;14.320;2022-11-15T12:19:46;100344.84;;;12.57;100.00
7168;BME280;3625;51.762;14.320;2022-11-15T12:22:22;100324.81;;;12.47;100.00
7168;BME280;3625;51.762;14.320;2022-11-15T12:24:56;100334.13;;;12.60;100.00
7168;BME280;3625;51.762;14.320;2022-11-15T12:27:33;100333.31;;;12.58;100.00
7168;BME280;3625;51.762;14.320;2022-11-15T12:30:09;100329.69;;;12.61;100.00
7168;BME280;3625;51.762;14.320;2022-11-15T12:32:50;100330.59;;;12.60;100.00
7168;BME280;3625;51.762;14.320;2022-11-15T12:35:31;100327.84;;;12.63;100.00
7168;BME280;3625;51.762;14.320;2022-11-15T12:38:02;100328.63;;;12.66;100.00
7168;BME280;3625;51.762;14.320;2022-11-15T12:40:34;100325.00;;;12.69;100.00
7168;BME280;3625;51.762;14.320;2022-11-15T12:45:54;100311.81;;;12.66;100.00
7168;BME280;3625;51.762;14.320;2022-11-15T12:48:58;100307.28;;;12.69;100.00
7168;BME280;3625;51.762;14.320;2022-11-15T12:54:52;100299.22;;;12.72;100.00
7168;BME280;3625;51.762;14.320;2022-11-15T12:57:33;100303.59;;;12.73;100.00
7168;BME280;3625;51.762;14.320;2022-11-15T13:03:24;100300.28;;;12.67;100.00
7168;BME280;3625;51.762;14.320;2022-11-15T13:06:39;100288.72;;;12.69;100.00
7168;BME280;3625;51.762;14.320;2022-11-15T13:09:00;100292.25;;;12.70;100.00
7168;BME280;3625;51.762;14.320;2022-11-15T13:11:59;100288.72;;;12.69;100.00
7168;BME280;3625;51.762;14.320;2022-11-15T13:14:47;100272.91;;;12.65;100.00
7168;BME280;3625;51.762;14.320;2022-11-15T13:17:32;100275.56;;;12.65;100.00
7168;BME280;3625;51.762;14.320;2022-11-15T13:20:22;100275.69;;;12.62;100.00
7168;BME280;3625;51.762;14.320;2022-11-15T13:22:52;100273.91;;;12.62;100.00
7168;BME280;3625;51.762;14.320;2022-11-15T13:26:17;100277.63;;;12.57;100.00
7168;BME280;3625;51.762;14.320;2022-11-15T13:28:49;100267.00;;;12.57;100.00
7168;BME280;3625;51.762;14.320;2022-11-15T13:31:26;100267.91;;;12.56;100.00
7168;BME280;3625;51.762;14.320;2022-11-15T13:33:59;100270.53;;;12.57;100.00
7168;BME280;3625;51.762;14.320;2022-11-15T13:36:31;100269.63;;;12.58;100.00
7168;BME280;3625;51.762;14.320;2022-11-15T13:39:03;100269.63;;;12.58;100.00
7168;BME280;3625;51.762;14.320;2022-11-15T13:41:35;100267.00;;;12.57;100.00
7168;BME280;3625;51.762;14.320;2022-11-15T13:44:05;100260.66;;;12.62;100.00
7168;BME280;3625;51.762;14.320;2022-11-15T13:46:48;100264.13;;;12.63;100.00
7168;BME280;3625;51.762;14.320;2022-11-15T13:49:16;100259.00;;;12.58;100.00
7168;BME280;3625;51.762;14.320;2022-11-15T13:51:47;100257.34;;;12.54;100.00
7168;BME280;3625;51.762;14.320;2022-11-15T13:54:20;100253.94;;;12.51;100.00
7168;BME280;3625;51.762;14.320;2022-11-15T13:56:56;100251.38;;;12.47;100.00
7168;BME280;3625;51.762;14.320;2022-11-15T13:59:30;100253.75;;;12.57;100.00
7168;BME280;3625;51.762;14.320;2022-11-15T14:02:02;100241.13;;;12.63;100.00
7168;BME280;3625;51.762;14.320;2022-11-15T14:04:32;100246.75;;;12.54;100.00
7168;BME280;3625;51.762;14.320;2022-11-15T14:07:02;100247.13;;;12.43;100.00
7168;BME280;3625;51.762;14.320;2022-11-15T14:09:36;100225.53;;;12.28;100.00
7168;BME280;3625;51.762;14.320;2022-11-15T14:12:28;100254.25;;;12.41;100.00
7168;BME280;3625;51.762;14.320;2022-11-15T14:15:01;100255.09;;;12.43;100.00
7168;BME280;3625;51.762;14.320;2022-11-15T14:17:36;100245.59;;;12.36;100.00
7168;BME280;3625;51.762;14.320;2022-11-15T14:20:27;100249.47;;;12.26;100.00
7168;BME280;3625;51.762;14.320;2022-11-15T14:23:00;100247.97;;;12.18;100.00
7168;BME280;3625;51.762;14.320;2022-11-15T14:25:30;100248.22;;;12.10;100.00
7168;BME280;3625;51.762;14.320;2022-11-15T14:28:27;100253.63;;;12.07;100.00
7168;BME280;3625;51.762;14.320;2022-11-15T14:30:59;100244.88;;;12.03;100.00
7168;BME280;3625;51.762;14.320;2022-11-15T14:33:31;100245.97;;;11.96;100.00
7168;BME280;3625;51.762;14.320;2022-11-15T14:36:05;100240.94;;;11.89;100.00
7168;BME280;3625;51.762;14.320;2022-11-15T14:38:36;100243.91;;;11.78;100.00
7168;BME280;3625;51.762;14.320;2022-11-15T14:41:05;100255.50;;;11.76;100.00
7168;BME280;3625;51.762;14.320;2022-11-15T14:43:35;100244.81;;;11.77;100.00
7168;BME280;3625;51.762;14.320;2022-11-15T14:46:04;100247.38;;;11.80;100.00
7168;BME280;3625;51.762;14.320;2022-11-15T14:48:33;100234.34;;;11.72;100.00
7168;BME280;3625;51.762;14.320;2022-11-15T14:51:02;100232.81;;;11.64;100.00
7168;BME280;3625;51.762;14.320;2022-11-15T14:53:30;100229.50;;;11.57;100.00